Time;durP1;ratioP1;P1;durP2;ratioP2;P2;SDS_P1;SDS_P2;PMS_P1;PMS_P2;Temp;Humidity;BMP_temperature;BMP_pressure;BME280_temperature;BME280_humidity;BME280_pressure;Samples;Min_cycle;Max_cycle;Signal;HPM_P1;HPM_P2
2022/07/28 00:00:44;;;;;;;;;;;;;;;14.40;97.33;102063.44;5036695;28;20278;-56
2022/07/28 00:03:10;;;;;;;;;;;;;;;14.33;97.67;102050.44;5052153;28;19920;-57
2022/07/28 00:05:35;;;;;;;;;;;;;;;14.29;97.75;102052.34;5053048;28;19963;-56
2022/07/28 00:08:00;;;;;;;;;;;;;;;14.26;98.32;102044.50;5053576;28;19978;-56
2022/07/28 00:10:25;;;;;;;;;;;;;;;14.26;98.58;102049.81;5053826;28;19920;-55
2022/07/28 00:12:51;;;;;;;;;;;;;;;14.21;98.76;102044.66;5053476;28;20003;-56
2022/07/28 00:15:16;;;;;;;;;;;;;;;14.14;98.93;102048.50;5053483;28;19962;-56
2022/07/28 00:17:41;;;;;;;;;;;;;;;14.10;99.82;102049.56;5053061;28;19970;-57
2022/07/28 00:20:07;;;;;;;;;;;;;;;14.07;99.79;102049.69;5053770;28;19917;-57
2022/07/28 00:22:32;;;;;;;;;;;;;;;14.06;100.00;102042.63;5053078;28;19929;-55
2022/07/28 00:24:57;;;;;;;;;;;;;;;14.06;100.00;102042.63;5053223;28;19919;-56
2022/07/28 00:27:23;;;;;;;;;;;;;;;13.99;100.00;102035.81;5052935;28;19928;-56
2022/07/28 00:29:49;;;;;;;;;;;;;;;13.92;100.00;102046.69;5053338;28;20368;-55
2022/07/28 00:32:14;;;;;;;;;;;;;;;13.88;100.00;102042.44;5053039;28;19916;-54
2022/07/28 00:34:40;;;;;;;;;;;;;;;13.88;100.00;102039.75;5035594;28;20461;-54
2022/07/28 00:37:05;;;;;;;;;;;;;;;13.82;100.00;102042.66;5053427;28;19943;-56
2022/07/28 00:39:30;;;;;;;;;;;;;;;13.79;100.00;102042.81;5053200;28;20296;-57
2022/07/28 00:41:55;;;;;;;;;;;;;;;13.74;100.00;102040.31;5052911;28;19975;-56
2022/07/28 00:44:21;;;;;;;;;;;;;;;13.72;100.00;102041.28;5052921;28;19940;-55
2022/07/28 00:46:46;;;;;;;;;;;;;;;13.71;100.00;102042.25;5052896;28;19963;-56
2022/07/28 00:49:12;;;;;;;;;;;;;;;13.70;100.00;102041.34;5033782;28;19927;-56
2022/07/28 00:51:38;;;;;;;;;;;;;;;13.73;100.00;102035.06;5052273;28;19966;-55
2022/07/28 00:54:03;;;;;;;;;;;;;;;13.73;100.00;102033.28;5034578;28;19916;-56
2022/07/28 00:56:29;;;;;;;;;;;;;;;13.72;100.00;102041.28;5052842;28;19979;-55
2022/07/28 00:58:54;;;;;;;;;;;;;;;13.69;100.00;102036.97;5052588;28;20341;-54
2022/07/28 01:01:20;;;;;;;;;;;;;;;13.65;100.00;102038.00;5034900;28;20011;-57
2022/07/28 01:03:47;;;;;;;;;;;;;;;13.63;100.00;102039.00;5034439;28;19921;-54
2022/07/28 01:06:12;;;;;;;;;;;;;;;13.63;100.00;102037.19;5051924;28;19920;-57
2022/07/28 01:08:56;;;;;;;;;;;;;;;13.58;100.00;102037.38;5052679;28;19921;-56
2022/07/28 01:11:24;;;;;;;;;;;;;;;13.57;100.00;102029.47;5052738;28;19912;-55
2022/07/28 01:13:53;;;;;;;;;;;;;;;13.57;100.00;102030.31;5052173;28;19917;-54
2022/07/28 01:16:18;;;;;;;;;;;;;;;13.56;100.00;102025.06;5052418;28;19988;-56
2022/07/28 01:18:43;;;;;;;;;;;;;;;13.59;100.00;102024.94;5034562;28;19956;-56
2022/07/28 01:21:13;;;;;;;;;;;;;;;13.62;100.00;102032.81;5052118;28;19917;-55
2022/07/28 01:23:57;;;;;;;;;;;;;;;13.64;100.00;102038.06;5052060;28;20368;-57
2022/07/28 01:26:38;;;;;;;;;;;;;;;13.64;100.00;102028.28;5034091;28;19924;-57
2022/07/28 01:29:13;;;;;;;;;;;;;;;13.62;100.00;102030.16;5052351;28;20003;-56
2022/07/28 01:31:39;;;;;;;;;;;;;;;13.62;100.00;102022.19;5052313;28;19967;-56
2022/07/28 01:34:07;;;;;;;;;;;;;;;13.58;100.00;102021.41;5034090;28;19912;-54
2022/07/28 01:36:34;;;;;;;;;;;;;;;13.59;100.00;102019.59;5051863;28;19921;-56
2022/07/28 01:39:01;;;;;;;;;;;;;;;13.55;100.00;102010.88;5052226;28;20376;-56
2022/07/28 01:41:28;;;;;;;;;;;;;;;13.51;100.00;102016.41;5051438;28;19973;-55
2022/07/28 01:43:55;;;;;;;;;;;;;;;13.48;100.00;102013.81;5051707;28;20338;-53
2022/07/28 01:46:21;;;;;;;;;;;;;;;13.48;100.00;102006.72;5051886;28;19919;-53
2022/07/28 01:48:47;;;;;;;;;;;;;;;13.46;100.00;102008.56;5052064;28;20279;-53
2022/07/28 01:51:14;;;;;;;;;;;;;;;13.45;100.00;102004.16;5017481;28;19924;-50
2022/07/28 01:53:40;;;;;;;;;;;;;;;13.43;100.00;102004.25;5051718;28;19921;-50
2022/07/28 01:56:06;;;;;;;;;;;;;;;13.43;100.00;102001.56;5051851;28;20372;-55
2022/07/28 01:58:33;;;;;;;;;;;;;;;13.43;100.00;101996.25;5051647;28;20392;-56
2022/07/28 02:00:59;;;;;;;;;;;;;;;13.47;100.00;101999.66;5051926;28;20285;-54
2022/07/28 02:03:27;;;;;;;;;;;;;;;13.47;100.00;101999.66;5050959;28;20132;-56
2022/07/28 02:05:54;;;;;;;;;;;;;;;13.44;100.00;101991.81;5051660;28;20019;-53
2022/07/28 02:08:20;;;;;;;;;;;;;;;13.44;100.00;101994.47;5051986;28;19959;-55
2022/07/28 02:11:38;;;;;;;;;;;;;;;13.42;100.00;101993.66;5051477;28;19924;-54
2022/07/28 02:13:33;;;;;;;;;;;;;;;13.41;100.00;101982.16;5051777;28;19912;-56
2022/07/28 02:15:59;;;;;;;;;;;;;;;13.42;100.00;101983.88;5051624;28;20021;-55
2022/07/28 02:18:25;;;;;;;;;;;;;;;13.45;100.00;101980.22;5054818;28;20368;-57
2022/07/28 02:20:51;;;;;;;;;;;;;;;13.42;100.00;101978.56;5020904;28;19955;-56
2022/07/28 02:23:18;;;;;;;;;;;;;;;13.39;100.00;101981.34;5055941;28;19925;-54
2022/07/28 02:25:43;;;;;;;;;;;;;;;13.39;100.00;101986.66;5055781;28;20256;-57
2022/07/28 02:28:09;;;;;;;;;;;;;;;13.43;100.00;101974.13;5055516;28;19940;-57
2022/07/28 02:30:35;;;;;;;;;;;;;;;13.44;100.00;101975.84;5021272;28;19964;-54
2022/07/28 02:33:02;;;;;;;;;;;;;;;13.43;100.00;101990.94;5055484;28;20363;-55
2022/07/28 02:35:31;;;;;;;;;;;;;;;13.43;100.00;101985.63;5055383;28;19913;-56
2022/07/28 02:37:59;;;;;;;;;;;;;;;13.42;100.00;101985.69;5055072;28;20003;-54
2022/07/28 02:40:27;;;;;;;;;;;;;;;13.37;100.00;101987.66;5037224;28;19939;-52
2022/07/28 02:42:53;;;;;;;;;;;;;;;13.36;100.00;101989.41;5055325;28;19924;-54
2022/07/28 02:45:20;;;;;;;;;;;;;;;13.31;100.00;101985.19;5037181;28;20356;-54
2022/07/28 02:47:50;;;;;;;;;;;;;;;13.24;100.00;101982.75;5054957;28;19999;-55
2022/07/28 02:50:19;;;;;;;;;;;;;;;13.19;100.00;101981.19;5054728;28;19924;-54
2022/07/28 02:52:45;;;;;;;;;;;;;;;13.14;100.00;101977.84;5055159;28;20322;-56
2022/07/28 02:55:12;;;;;;;;;;;;;;;13.10;100.00;101982.41;5054992;28;19923;-56
2022/07/28 02:57:39;;;;;;;;;;;;;;;13.05;100.00;101979.06;5055045;28;20392;-57
2022/07/28 03:00:04;;;;;;;;;;;;;;;13.02;100.00;101987.13;5054989;28;19948;-54
2022/07/28 03:02:32;;;;;;;;;;;;;;;12.98;100.00;101988.16;5054519;28;20388;-55
2022/07/28 03:04:58;;;;;;;;;;;;;;;12.91;100.00;101982.22;5054541;28;19917;-55
2022/07/28 03:07:30;;;;;;;;;;;;;;;12.87;100.00;101981.47;5054929;28;19912;-53
2022/07/28 03:09:56;;;;;;;;;;;;;;;12.83;100.00;101986.97;5035094;28;19921;-53
2022/07/28 03:12:21;;;;;;;;;;;;;;;12.77;100.00;101986.25;5046775;28;19917;-56
2022/07/28 03:14:46;;;;;;;;;;;;;;;12.73;100.00;101986.41;5054607;28;19917;-56
2022/07/28 03:17:11;;;;;;;;;;;;;;;12.65;100.00;101980.47;5036834;28;20376;-53
2022/07/28 03:19:37;;;;;;;;;;;;;;;12.59;100.00;101979.78;5054548;28;19928;-55
2022/07/28 03:22:03;;;;;;;;;;;;;;;12.56;100.00;101981.69;5054310;28;19981;-52
2022/07/28 03:24:29;;;;;;;;;;;;;;;12.52;100.00;101983.59;5054695;28;19913;-55
2022/07/28 03:26:58;;;;;;;;;;;;;;;12.46;100.00;101982.00;5054641;28;19913;-54
2022/07/28 03:29:24;;;;;;;;;;;;;;;12.44;100.00;101985.63;5053561;28;20431;-56
2022/07/28 03:31:51;;;;;;;;;;;;;;;12.40;100.00;101982.19;5054622;28;19999;-55
2022/07/28 03:34:16;;;;;;;;;;;;;;;12.38;100.00;101981.41;5053861;28;20047;-51
2022/07/28 03:36:44;;;;;;;;;;;;;;;12.37;100.00;101979.66;5054354;28;19999;-55
2022/07/28 03:39:10;;;;;;;;;;;;;;;12.38;100.00;101983.16;5054165;28;19917;-55
2022/07/28 03:41:37;;;;;;;;;;;;;;;12.39;100.00;101983.16;5036627;28;19947;-52
2022/07/28 03:44:02;;;;;;;;;;;;;;;12.38;100.00;101989.38;5053696;28;19931;-56
2022/07/28 03:46:28;;;;;;;;;;;;;;;12.35;100.00;101986.81;5036272;28;19916;-53
2022/07/28 03:48:53;;;;;;;;;;;;;;;12.31;100.00;101989.63;5053804;28;19967;-50
2022/07/28 03:51:18;;;;;;;;;;;;;;;12.24;100.00;101987.19;5053933;28;19924;-53
2022/07/28 03:53:43;;;;;;;;;;;;;;;12.20;100.00;101993.53;5053707;28;19920;-52
2022/07/28 03:56:09;;;;;;;;;;;;;;;12.16;100.00;101994.53;5053003;28;19921;-56
2022/07/28 03:58:34;;;;;;;;;;;;;;;12.13;100.00;101995.50;5019613;28;19920;-52
2022/07/28 04:00:59;;;;;;;;;;;;;;;12.12;100.00;102001.75;5053459;28;20340;-54
2022/07/28 04:03:25;;;;;;;;;;;;;;;12.12;100.00;102000.84;5035843;28;19943;-56
2022/07/28 04:05:50;;;;;;;;;;;;;;;12.09;100.00;102011.59;5052934;28;19985;-56
2022/07/28 04:08:15;;;;;;;;;;;;;;;12.07;100.00;102003.69;5053539;28;19916;-56
2022/07/28 04:10:41;;;;;;;;;;;;;;;12.08;100.00;102002.72;5035890;28;19943;-57
2022/07/28 04:13:06;;;;;;;;;;;;;;;12.11;100.00;102001.75;5035496;28;19916;-56
2022/07/28 04:15:32;;;;;;;;;;;;;;;12.13;100.00;102014.09;5052367;28;19974;-55
2022/07/28 04:17:58;;;;;;;;;;;;;;;12.12;100.00;102009.69;5049556;28;19921;-57
2022/07/28 04:20:24;;;;;;;;;;;;;;;12.12;100.00;102011.47;5052944;28;19916;-56
2022/07/28 04:22:50;;;;;;;;;;;;;;;12.12;100.00;102012.34;5052554;28;20015;-56
2022/07/28 04:25:16;;;;;;;;;;;;;;;12.14;100.00;102009.66;5053326;28;20300;-56
2022/07/28 04:27:41;;;;;;;;;;;;;;;12.15;100.00;102011.38;5050078;28;19932;-57
2022/07/28 04:30:12;;;;;;;;;;;;;;;12.17;100.00;102004.22;5033721;28;19921;-56
2022/07/28 04:32:37;;;;;;;;;;;;;;;12.18;100.00;102011.28;5051518;28;20346;-55
2022/07/28 04:35:03;;;;;;;;;;;;;;;12.21;100.00;102005.00;5053068;28;20017;-56
2022/07/28 04:37:28;;;;;;;;;;;;;;;12.24;100.00;102000.47;5053243;28;19912;-56
2022/07/28 04:39:53;;;;;;;;;;;;;;;12.31;100.00;102008.22;5052358;28;20004;-57
2022/07/28 04:42:19;;;;;;;;;;;;;;;12.35;100.00;102013.34;5034589;28;19921;-56
2022/07/28 04:44:44;;;;;;;;;;;;;;;12.37;100.00;102008.88;5053023;28;20007;-57
2022/07/28 04:47:11;;;;;;;;;;;;;;;12.41;100.00;102009.66;5052815;28;19916;-56
2022/07/28 04:49:37;;;;;;;;;;;;;;;12.46;100.00;102005.03;5053052;28;19912;-55
2022/07/28 04:52:02;;;;;;;;;;;;;;;12.55;100.00;102006.53;5052343;28;19923;-56
2022/07/28 04:54:28;;;;;;;;;;;;;;;12.62;100.00;101998.28;5033773;28;20347;-56
2022/07/28 04:56:53;;;;;;;;;;;;;;;12.74;100.00;101998.78;5034008;28;19921;-56
2022/07/28 04:59:18;;;;;;;;;;;;;;;12.83;100.00;102002.91;5034566;28;20357;-57
2022/07/28 05:01:43;;;;;;;;;;;;;;;12.92;100.00;102003.41;5052572;28;20334;-56
2022/07/28 05:04:09;;;;;;;;;;;;;;;12.93;100.00;102009.63;5052900;28;20431;-54
2022/07/28 05:06:34;;;;;;;;;;;;;;;12.95;100.00;102013.97;5034363;28;20365;-56
2022/07/28 05:08:59;;;;;;;;;;;;;;;12.99;100.00;102005.88;5052425;28;19920;-55
2022/07/28 05:11:25;;;;;;;;;;;;;;;13.00;100.00;102005.81;5034059;28;19924;-56
2022/07/28 05:13:50;;;;;;;;;;;;;;;12.99;100.00;102004.06;5052280;28;19921;-54
2022/07/28 05:16:16;;;;;;;;;;;;;;;13.11;100.00;102000.09;5033865;28;20274;-57
2022/07/28 05:18:41;;;;;;;;;;;;;;;13.19;100.00;101999.81;5052105;28;19972;-55
2022/07/28 05:21:06;;;;;;;;;;;;;;;13.27;100.00;102009.25;5047480;28;19917;-56
2022/07/28 05:23:31;;;;;;;;;;;;;;;13.34;100.00;102004.56;5046372;28;19995;-55
2022/07/28 05:25:57;;;;;;;;;;;;;;;13.32;100.00;102008.22;5051580;28;19975;-56
2022/07/28 05:28:22;;;;;;;;;;;;;;;13.31;100.00;102004.66;5052062;28;20370;-56
2022/07/28 05:30:47;;;;;;;;;;;;;;;13.37;100.00;102012.44;5051117;28;19925;-56
2022/07/28 05:33:15;;;;;;;;;;;;;;;13.32;100.00;102014.38;5051909;28;20375;-56
2022/07/28 05:35:41;;;;;;;;;;;;;;;13.38;100.00;102008.88;5050275;28;19916;-56
2022/07/28 05:38:06;;;;;;;;;;;;;;;13.46;100.00;102008.56;5051715;28;20395;-54
2022/07/28 05:40:32;;;;;;;;;;;;;;;13.55;100.00;102012.69;5051792;28;19929;-57
2022/07/28 05:42:57;;;;;;;;;;;;;;;13.65;100.00;102013.19;5052058;28;19913;-57
2022/07/28 05:45:22;;;;;;;;;;;;;;;13.76;100.00;102013.66;5033995;28;20012;-56
2022/07/28 05:47:51;;;;;;;;;;;;;;;13.78;100.00;102001.13;5051624;28;19920;-48
2022/07/28 05:50:18;;;;;;;;;;;;;;;13.81;100.00;102008.13;5051488;28;19921;-48
2022/07/28 05:52:43;;;;;;;;;;;;;;;13.89;100.00;102008.69;5032005;28;20357;-48
2022/07/28 05:55:09;;;;;;;;;;;;;;;14.00;100.00;102005.59;5050737;28;19932;-49
2022/07/28 05:57:35;;;;;;;;;;;;;;;14.17;100.00;102010.22;5019076;28;20376;-57
2022/07/28 06:00:00;;;;;;;;;;;;;;;14.23;100.00;102012.63;5050414;28;19929;-56
2022/07/28 06:02:25;;;;;;;;;;;;;;;14.33;100.00;102003.31;5048936;28;20361;-55
2022/07/28 06:04:51;;;;;;;;;;;;;;;14.45;100.00;102007.28;5049798;28;19927;-57
2022/07/28 06:07:16;;;;;;;;;;;;;;;14.45;100.00;102009.06;5049139;28;19921;-56
2022/07/28 06:09:41;;;;;;;;;;;;;;;14.45;99.92;102015.28;5050892;28;19921;-57
2022/07/28 06:12:06;;;;;;;;;;;;;;;14.44;99.78;102010.88;5050019;28;19978;-55
2022/07/28 06:14:32;;;;;;;;;;;;;;;14.49;99.63;102014.22;5050144;28;19925;-57
2022/07/28 06:16:57;;;;;;;;;;;;;;;14.64;99.76;102012.72;5047742;28;19924;-57
2022/07/28 06:19:22;;;;;;;;;;;;;;;14.72;99.50;102015.06;5032259;28;20427;-56
2022/07/28 06:21:51;;;;;;;;;;;;;;;14.87;99.25;102019.72;5050566;28;19921;-56
2022/07/28 06:24:16;;;;;;;;;;;;;;;15.00;98.56;102011.16;5050516;28;19925;-55
2022/07/28 06:26:42;;;;;;;;;;;;;;;14.95;97.41;102018.50;5050939;28;19924;-57
2022/07/28 06:29:07;;;;;;;;;;;;;;;14.85;97.28;102018.06;5050946;28;20442;-56
2022/07/28 06:31:32;;;;;;;;;;;;;;;14.79;97.91;102013.00;5050752;28;19928;-56
2022/07/28 06:33:57;;;;;;;;;;;;;;;14.91;99.03;102017.75;5050349;28;19929;-57
2022/07/28 06:36:23;;;;;;;;;;;;;;;15.03;97.15;102014.56;5031737;28;19925;-56
2022/07/28 06:38:48;;;;;;;;;;;;;;;15.12;96.78;102009.75;5050221;28;19920;-55
2022/07/28 06:41:13;;;;;;;;;;;;;;;15.14;96.79;102013.19;5050481;28;19939;-56
2022/07/28 06:43:39;;;;;;;;;;;;;;;15.18;96.76;102004.13;5032575;28;20438;-56
2022/07/28 06:46:04;;;;;;;;;;;;;;;15.20;95.90;102003.09;5050815;28;19951;-56
2022/07/28 06:48:29;;;;;;;;;;;;;;;15.32;95.69;101999.03;5050109;28;20015;-54
2022/07/28 06:50:58;;;;;;;;;;;;;;;15.34;94.92;101999.81;5050240;28;19916;-56
2022/07/28 06:53:23;;;;;;;;;;;;;;;15.32;95.57;102006.16;5050491;28;19925;-55
2022/07/28 06:55:48;;;;;;;;;;;;;;;15.33;95.94;101998.09;5030742;28;19928;-56
2022/07/28 06:58:14;;;;;;;;;;;;;;;15.35;95.72;102012.22;5047423;28;19963;-56
2022/07/28 07:00:39;;;;;;;;;;;;;;;15.41;95.74;102011.09;5048567;28;19925;-54
2022/07/28 07:03:04;;;;;;;;;;;;;;;15.46;95.16;102000.19;5030717;28;20394;-55
2022/07/28 07:05:30;;;;;;;;;;;;;;;15.60;93.72;102003.09;5026593;28;20311;-55
2022/07/28 07:07:56;;;;;;;;;;;;;;;15.71;90.27;102003.41;5036784;28;20447;-56
2022/07/28 07:10:21;;;;;;;;;;;;;;;15.82;90.73;102000.28;5054001;28;19921;-53
2022/07/28 07:12:46;;;;;;;;;;;;;;;16.01;89.65;101999.34;5051731;28;20369;-55
2022/07/28 07:15:11;;;;;;;;;;;;;;;16.05;87.33;102004.47;5052649;28;19925;-55
2022/07/28 07:17:37;;;;;;;;;;;;;;;16.14;86.74;101988.91;5054168;28;19917;-55
2022/07/28 07:20:03;;;;;;;;;;;;;;;16.18;86.69;101991.38;5053570;28;19921;-56
2022/07/28 07:22:28;;;;;;;;;;;;;;;16.24;87.15;101994.69;5053634;28;19921;-55
2022/07/28 07:24:53;;;;;;;;;;;;;;;16.17;83.61;102005.66;5053471;28;19928;-56
2022/07/28 07:27:19;;;;;;;;;;;;;;;16.17;83.51;101992.31;5052922;28;20292;-56
2022/07/28 07:29:44;;;;;;;;;;;;;;;16.20;81.64;101986.81;5053376;28;19921;-56
2022/07/28 07:32:09;;;;;;;;;;;;;;;16.29;82.97;101998.88;5054287;28;19921;-55
2022/07/28 07:34:35;;;;;;;;;;;;;;;16.36;81.68;101986.06;5034900;28;19929;-56
2022/07/28 07:37:00;;;;;;;;;;;;;;;16.43;81.55;101994.63;5053700;28;19924;-55
2022/07/28 07:39:25;;;;;;;;;;;;;;;16.47;81.32;101999.75;5053790;28;19921;-55
2022/07/28 07:41:51;;;;;;;;;;;;;;;16.51;81.08;101992.44;5053638;28;20411;-56
2022/07/28 07:44:16;;;;;;;;;;;;;;;16.66;82.95;101993.41;5050461;28;19921;-56
2022/07/28 07:46:41;;;;;;;;;;;;;;;16.83;84.55;101984.53;5053155;28;19920;-56
2022/07/28 07:49:06;;;;;;;;;;;;;;;16.98;82.68;101983.75;5034949;28;19917;-56
2022/07/28 07:51:32;;;;;;;;;;;;;;;17.01;83.15;101991.59;5053510;28;19932;-55
2022/07/28 07:53:57;;;;;;;;;;;;;;;17.06;81.33;101996.72;5053367;28;19928;-56
2022/07/28 07:56:22;;;;;;;;;;;;;;;17.17;81.53;101990.75;5052712;28;20149;-56
2022/07/28 07:58:48;;;;;;;;;;;;;;;17.32;81.32;101991.75;5050316;28;20299;-53
2022/07/28 08:01:13;;;;;;;;;;;;;;;17.51;81.39;101991.59;5035474;28;19944;-56
2022/07/28 08:03:39;;;;;;;;;;;;;;;17.53;79.27;101995.03;5048038;28;19925;-56
2022/07/28 08:06:04;;;;;;;;;;;;;;;17.45;78.86;101992.78;5035758;28;20050;-55
2022/07/28 08:08:30;;;;;;;;;;;;;;;17.55;79.91;101998.50;5053209;28;19917;-55
2022/07/28 08:10:55;;;;;;;;;;;;;;;17.72;78.70;101994.84;5052581;28;19925;-53
2022/07/28 08:13:21;;;;;;;;;;;;;;;17.89;77.25;101985.88;5053139;28;19920;-55
2022/07/28 08:15:47;;;;;;;;;;;;;;;18.06;77.70;101992.09;5051824;28;19968;-54
2022/07/28 08:18:12;;;;;;;;;;;;;;;18.13;75.70;101988.97;5052102;28;20422;-56
2022/07/28 08:20:37;;;;;;;;;;;;;;;18.19;73.54;101990.41;5035432;28;19956;-57
2022/07/28 08:23:03;;;;;;;;;;;;;;;18.22;73.64;101986.69;5049489;28;20283;-57
2022/07/28 08:25:28;;;;;;;;;;;;;;;18.32;74.83;101986.03;5052986;28;19921;-57
2022/07/28 08:27:53;;;;;;;;;;;;;;;18.37;72.68;101987.63;5052343;28;19928;-56
2022/07/28 08:30:18;;;;;;;;;;;;;;;18.46;73.56;101992.41;5052202;28;20004;-56
2022/07/28 08:32:44;;;;;;;;;;;;;;;18.59;73.44;101990.72;5029745;28;19987;-56
2022/07/28 08:35:09;;;;;;;;;;;;;;;18.59;73.60;101988.03;5032662;28;19921;-56
2022/07/28 08:37:35;;;;;;;;;;;;;;;18.64;73.28;101980.59;5034727;28;20071;-50
2022/07/28 08:40:00;;;;;;;;;;;;;;;18.86;71.97;101984.63;5032532;28;19929;-56
2022/07/28 08:42:42;;;;;;;;;;;;;;;19.03;71.92;101983.63;5051172;28;19924;-56
2022/07/28 08:45:09;;;;;;;;;;;;;;;19.38;73.20;101979.66;5034260;28;20269;-56
2022/07/28 08:47:35;;;;;;;;;;;;;;;19.50;66.25;101976.16;5035021;28;20388;-56
2022/07/28 08:50:01;;;;;;;;;;;;;;;19.92;66.46;101966.31;5051978;28;19925;-56
2022/07/28 08:52:30;;;;;;;;;;;;;;;20.50;64.08;101962.41;5052031;28;19943;-57
2022/07/28 08:54:56;;;;;;;;;;;;;;;22.43;52.74;101972.72;5051351;28;19916;-57
2022/07/28 08:57:27;;;;;;;;;;;;;;;23.34;47.32;101978.22;5031071;28;19917;-57
2022/07/28 08:59:52;;;;;;;;;;;;;;;23.59;45.22;101974.34;5050742;28;19929;-57
2022/07/28 09:02:17;;;;;;;;;;;;;;;23.34;43.29;101973.66;5033392;28;19928;-57
2022/07/28 09:04:45;;;;;;;;;;;;;;;23.15;45.02;101966.19;5033134;28;20423;-57
2022/07/28 09:07:10;;;;;;;;;;;;;;;23.27;43.97;101979.69;5048595;28;19913;-58
2022/07/28 09:09:36;;;;;;;;;;;;;;;23.26;44.23;101975.25;5052134;28;19913;-57
2022/07/28 09:12:04;;;;;;;;;;;;;;;23.26;43.35;101981.50;5051792;28;19932;-56
2022/07/28 09:14:29;;;;;;;;;;;;;;;23.66;43.44;101982.84;5052043;28;20050;-57
2022/07/28 09:16:57;;;;;;;;;;;;;;;23.70;42.03;101981.59;5051830;28;20304;-57
2022/07/28 09:19:22;;;;;;;;;;;;;;;23.92;42.07;101977.97;5050387;28;20388;-57
2022/07/28 09:21:48;;;;;;;;;;;;;;;23.99;41.89;101976.47;5052065;28;20050;-56
2022/07/28 09:24:33;;;;;;;;;;;;;;;23.48;41.30;101983.34;5040149;28;20023;-57
2022/07/28 09:27:00;;;;;;;;;;;;;;;22.94;42.79;101974.13;5045909;28;19966;-57
2022/07/28 09:29:25;;;;;;;;;;;;;;;22.40;45.75;101987.31;5050629;28;19979;-56
2022/07/28 09:31:50;;;;;;;;;;;;;;;22.37;44.40;101970.50;5047922;28;20352;-57
2022/07/28 09:34:16;;;;;;;;;;;;;;;22.19;44.02;101965.50;5048987;28;20172;-56
2022/07/28 09:36:43;;;;;;;;;;;;;;;21.72;46.90;101959.19;5042497;28;19925;-57
2022/07/28 09:39:08;;;;;;;;;;;;;;;22.38;44.71;101969.53;5046273;28;19964;-57
2022/07/28 09:41:47;;;;;;;;;;;;;;;22.32;45.04;101961.88;5047367;28;19966;-57
2022/07/28 09:44:19;;;;;;;;;;;;;;;22.31;43.62;101961.00;5049479;28;20046;-57
2022/07/28 09:46:44;;;;;;;;;;;;;;;22.44;44.23;101958.22;5032404;28;19961;-57
2022/07/28 09:49:10;;;;;;;;;;;;;;;23.02;42.70;101963.59;5049005;28;19913;-55
2022/07/28 09:51:35;;;;;;;;;;;;;;;23.78;42.41;101970.13;5050298;28;20043;-56
2022/07/28 09:54:10;;;;;;;;;;;;;;;24.77;38.55;101964.47;5037668;28;19921;-56
2022/07/28 09:56:42;;;;;;;;;;;;;;;24.78;39.20;101955.38;5050455;28;20284;-57
2022/07/28 09:59:08;;;;;;;;;;;;;;;24.25;40.10;101938.22;5051961;28;20399;-57
2022/07/28 10:01:48;;;;;;;;;;;;;;;23.51;41.02;101952.50;5051048;28;19921;-56
2022/07/28 10:04:14;;;;;;;;;;;;;;;23.14;42.47;101956.31;5050289;28;19916;-56
2022/07/28 10:06:39;;;;;;;;;;;;;;;23.56;41.87;101945.72;5047868;28;19928;-57
2022/07/28 10:09:06;;;;;;;;;;;;;;;23.73;42.46;101933.50;5018978;28;19991;-54
2022/07/28 10:11:32;;;;;;;;;;;;;;;23.79;40.31;101933.97;5052903;28;19925;-57
2022/07/28 10:13:59;;;;;;;;;;;;;;;23.73;42.04;101928.09;5051461;28;19967;-57
2022/07/28 10:16:25;;;;;;;;;;;;;;;24.01;41.67;101922.22;5051024;28;20448;-56
2022/07/28 10:18:51;;;;;;;;;;;;;;;24.00;39.44;101926.78;5051023;28;19913;-57
2022/07/28 10:21:17;;;;;;;;;;;;;;;23.94;38.87;101921.91;5051042;28;20000;-57
2022/07/28 10:23:47;;;;;;;;;;;;;;;24.46;39.71;101921.94;5053132;28;19924;-56
2022/07/28 10:26:13;;;;;;;;;;;;;;;25.31;37.65;101921.75;5049975;28;19917;-57
2022/07/28 10:28:40;;;;;;;;;;;;;;;25.81;35.84;101915.41;5016623;28;19919;-57
2022/07/28 10:31:08;;;;;;;;;;;;;;;25.70;35.87;101927.25;5048169;28;20615;-57
2022/07/28 10:33:34;;;;;;;;;;;;;;;25.75;35.38;101918.69;5048819;28;19928;-56
2022/07/28 10:35:59;;;;;;;;;;;;;;;25.93;36.53;101924.25;5051115;28;20082;-55
2022/07/28 10:38:32;;;;;;;;;;;;;;;25.45;35.08;101924.09;5052533;28;20365;-56
2022/07/28 10:41:00;;;;;;;;;;;;;;;25.50;35.53;101923.69;5054079;28;19943;-57
2022/07/28 10:43:26;;;;;;;;;;;;;;;26.04;33.63;101915.97;5054968;28;19913;-57
2022/07/28 10:45:51;;;;;;;;;;;;;;;25.28;35.56;101916.59;5055132;28;19962;-57
2022/07/28 10:48:19;;;;;;;;;;;;;;;25.38;35.06;101911.22;5054239;28;19925;-57
2022/07/28 10:50:44;;;;;;;;;;;;;;;25.38;35.08;101913.94;5053396;28;19960;-56
2022/07/28 10:53:10;;;;;;;;;;;;;;;25.45;35.36;101910.53;5029644;28;19975;-56
2022/07/28 10:55:39;;;;;;;;;;;;;;;25.65;35.17;101902.41;5053310;28;19925;-57
2022/07/28 10:58:15;;;;;;;;;;;;;;;24.70;36.05;101905.41;5047105;28;19917;-58
2022/07/28 11:00:46;;;;;;;;;;;;;;;25.57;35.44;101907.69;5054362;28;19924;-57
2022/07/28 11:03:31;;;;;;;;;;;;;;;26.32;34.08;101908.78;5034790;28;19928;-57
2022/07/28 11:05:56;;;;;;;;;;;;;;;26.51;33.59;101909.75;5053899;28;19917;-58
2022/07/28 11:08:22;;;;;;;;;;;;;;;26.74;34.04;101907.56;5053957;28;19917;-58
2022/07/28 11:10:48;;;;;;;;;;;;;;;26.72;33.88;101911.41;5053120;28;20018;-58
2022/07/28 11:13:24;;;;;;;;;;;;;;;27.03;34.99;101901.09;5053825;28;19920;-58
2022/07/28 11:15:49;;;;;;;;;;;;;;;26.92;33.92;101906.75;5032232;28;19920;-58
2022/07/28 11:18:14;;;;;;;;;;;;;;;27.18;33.55;101892.47;5047209;28;20404;-58
2022/07/28 11:21:06;;;;;;;;;;;;;;;27.01;32.45;101896.81;5053000;28;20000;-57
2022/07/28 11:23:39;;;;;;;;;;;;;;;26.96;32.72;101891.88;5049611;28;19924;-58
2022/07/28 11:26:19;;;;;;;;;;;;;;;26.31;33.80;101896.22;5026375;28;19917;-58
2022/07/28 11:29:11;;;;;;;;;;;;;;;26.67;32.26;101885.50;5052872;28;19921;-59
2022/07/28 11:31:45;;;;;;;;;;;;;;;26.85;33.64;101889.34;5049019;28;19912;-58
2022/07/28 11:34:12;;;;;;;;;;;;;;;27.06;32.39;101889.94;5053511;28;19913;-58
2022/07/28 11:36:56;;;;;;;;;;;;;;;26.10;33.10;101891.00;5052683;28;19924;-58
2022/07/28 11:39:22;;;;;;;;;;;;;;;26.41;33.21;101895.34;5030851;28;20150;-59
2022/07/28 11:41:47;;;;;;;;;;;;;;;27.07;33.52;101899.81;5050520;28;20388;-58
2022/07/28 11:44:26;;;;;;;;;;;;;;;26.93;31.38;101898.47;5050812;28;19924;-58
2022/07/28 11:46:51;;;;;;;;;;;;;;;26.95;32.14;101890.16;5032730;28;19966;-58
2022/07/28 11:49:19;;;;;;;;;;;;;;;27.22;30.68;101883.81;5052459;28;19916;-58
2022/07/28 11:52:03;;;;;;;;;;;;;;;27.43;31.83;101883.56;5053429;28;19928;-58
2022/07/28 11:54:29;;;;;;;;;;;;;;;27.81;30.67;101867.06;5053719;28;19962;-58
2022/07/28 11:56:57;;;;;;;;;;;;;;;27.94;31.20;101878.41;5052825;28;20378;-58
2022/07/28 11:59:22;;;;;;;;;;;;;;;27.64;31.29;101869.63;5050726;28;19920;-58
2022/07/28 12:01:52;;;;;;;;;;;;;;;27.77;32.34;101865.69;5050795;28;20403;-58
2022/07/28 12:04:18;;;;;;;;;;;;;;;27.88;30.55;101870.00;5047868;28;19991;-58
2022/07/28 12:06:45;;;;;;;;;;;;;;;28.05;30.83;101866.44;5051842;28;19928;-57
2022/07/28 12:09:12;;;;;;;;;;;;;;;28.36;29.34;101860.47;5050376;28;19960;-58
2022/07/28 12:11:39;;;;;;;;;;;;;;;27.20;29.98;101864.09;5053262;28;19916;-57
2022/07/28 12:14:12;;;;;;;;;;;;;;;26.54;32.03;101868.72;5053610;28;19916;-57
2022/07/28 12:16:38;;;;;;;;;;;;;;;26.36;32.17;101863.19;5052395;28;19916;-58
2022/07/28 12:19:04;;;;;;;;;;;;;;;27.25;30.49;101858.19;5048671;28;19991;-57
2022/07/28 12:21:38;;;;;;;;;;;;;;;27.73;30.04;101845.25;5052335;28;20344;-57
2022/07/28 12:24:04;;;;;;;;;;;;;;;27.83;29.30;101854.16;5053221;28;19913;-57
2022/07/28 12:26:33;;;;;;;;;;;;;;;28.69;29.60;101838.88;5052792;28;20023;-57
2022/07/28 12:28:59;;;;;;;;;;;;;;;28.73;28.88;101858.50;5034666;28;20269;-57
2022/07/28 12:31:28;;;;;;;;;;;;;;;28.61;29.83;101831.50;5052376;28;20435;-58